createdAt,value
2022-12-11T00:02:22.062Z,9.00
2022-12-11T00:04:50.433Z,6.70
2022-12-11T00:07:18.761Z,5.00
2022-12-11T00:09:47.077Z,8.15
2022-12-11T00:12:15.376Z,8.18
2022-12-11T00:14:44.350Z,7.57
2022-12-11T00:17:14.189Z,8.23
2022-12-11T00:19:42.706Z,6.75
2022-12-11T00:22:11.072Z,5.82
2022-12-11T00:24:39.419Z,8.27
2022-12-11T00:27:08.111Z,6.65
2022-12-11T00:29:36.608Z,8.55
2022-12-11T00:32:05.002Z,9.80
2022-12-11T00:34:36.050Z,8.48
2022-12-11T00:37:04.528Z,8.68
2022-12-11T00:39:32.860Z,8.98
2022-12-11T00:42:01.198Z,6.90
2022-12-11T00:44:29.578Z,4.82
2022-12-11T00:46:57.984Z,7.55
2022-12-11T00:49:26.365Z,7.20
2022-12-11T00:51:56.278Z,9.07
2022-12-11T00:54:24.652Z,9.07
2022-12-11T00:56:52.976Z,9.73
2022-12-11T00:59:21.501Z,10.05
2022-12-11T01:01:49.876Z,10.60
2022-12-11T01:04:18.288Z,8.20
2022-12-11T01:06:46.626Z,9.73
2022-12-11T01:09:34.000Z,10.07
2022-12-11T01:12:02.373Z,10.57
2022-12-11T01:14:30.748Z,10.43
2022-12-11T01:16:59.111Z,10.02
2022-12-11T01:19:27.436Z,9.73
2022-12-11T01:21:55.763Z,10.43
2022-12-11T01:24:25.452Z,8.73
2022-12-11T01:26:53.804Z,10.65
2022-12-11T01:29:22.337Z,10.50
2022-12-11T01:31:50.645Z,9.73
2022-12-11T01:34:19.008Z,9.63
2022-12-11T01:36:47.336Z,12.27
2022-12-11T01:39:15.871Z,14.73
2022-12-11T01:41:45.549Z,14.48
2022-12-11T01:44:47.110Z,11.20
2022-12-11T01:47:16.804Z,11.63
2022-12-11T01:49:45.130Z,10.75
2022-12-11T01:52:17.607Z,9.85
2022-12-11T01:54:46.005Z,7.97
2022-12-11T01:57:16.900Z,9.73
2022-12-11T01:59:47.898Z,10.13
2022-12-11T02:02:20.874Z,8.77
2022-12-11T02:04:49.712Z,10.55
2022-12-11T02:07:18.049Z,13.73
2022-12-11T02:09:48.260Z,12.68
2022-12-11T02:12:26.075Z,12.88
2022-12-11T02:15:00.385Z,10.40
2022-12-11T02:17:34.939Z,12.32
2022-12-11T02:20:08.282Z,11.25
2022-12-11T02:22:53.822Z,8.52
2022-12-11T02:25:25.307Z,7.43
2022-12-11T02:28:06.735Z,13.25
2022-12-11T02:30:37.224Z,13.07
2022-12-11T02:33:05.504Z,8.57
2022-12-11T02:35:35.695Z,12.90
2022-12-11T02:38:06.898Z,12.48
2022-12-11T02:40:36.830Z,11.77
2022-12-11T02:43:08.776Z,8.43
2022-12-11T02:45:38.658Z,7.65
2022-12-11T02:48:08.467Z,12.93
2022-12-11T02:50:38.024Z,10.13
2022-12-11T02:53:08.162Z,12.50
2022-12-11T02:55:37.486Z,10.27
2022-12-11T02:58:09.625Z,12.43
2022-12-11T03:00:37.906Z,13.60
2022-12-11T03:03:06.306Z,8.02
2022-12-11T03:05:34.648Z,7.97
2022-12-11T03:08:03.438Z,11.57
2022-12-11T03:10:31.848Z,9.27
2022-12-11T03:13:00.909Z,8.82
2022-12-11T03:15:35.620Z,7.40
2022-12-11T03:18:08.703Z,7.15
2022-12-11T03:20:40.750Z,11.13
2022-12-11T03:23:14.741Z,7.03
2022-12-11T03:25:47.756Z,8.77
2022-12-11T03:28:19.502Z,9.45
2022-12-11T03:30:51.090Z,11.57
2022-12-11T03:33:25.159Z,11.20
2022-12-11T03:35:56.129Z,9.82
2022-12-11T03:38:27.056Z,8.40
2022-12-11T03:40:58.335Z,10.93
2022-12-11T03:43:27.868Z,10.30
2022-12-11T03:45:58.251Z,10.82
2022-12-11T03:48:38.049Z,8.35
2022-12-11T03:51:07.965Z,10.43
2022-12-11T03:53:37.382Z,7.15
2022-12-11T03:56:07.682Z,9.85
2022-12-11T03:58:36.053Z,12.05
2022-12-11T04:01:05.853Z,8.55
2022-12-11T04:03:34.251Z,11.02
2022-12-11T04:06:02.576Z,11.60
2022-12-11T04:08:30.990Z,8.90
2022-12-11T04:11:13.091Z,10.70
2022-12-11T04:13:42.182Z,9.57
2022-12-11T04:16:10.905Z,6.15
2022-12-11T04:18:56.729Z,10.93
2022-12-11T04:21:41.454Z,6.45
2022-12-11T04:24:16.544Z,8.25
2022-12-11T04:26:45.485Z,8.70
2022-12-11T04:29:14.237Z,11.32
2022-12-11T04:31:44.040Z,12.57
2022-12-11T04:34:12.422Z,7.47
2022-12-11T04:36:40.764Z,6.95
2022-12-11T04:39:09.140Z,12.15
2022-12-11T04:41:39.024Z,10.27
2022-12-11T04:44:07.305Z,7.65
2022-12-11T04:46:36.037Z,13.35
2022-12-11T04:49:05.829Z,8.30
2022-12-11T04:51:34.113Z,12.90
2022-12-11T04:54:02.480Z,10.82
2022-12-11T04:56:30.819Z,8.95
2022-12-11T04:58:59.103Z,7.43
2022-12-11T05:01:27.676Z,9.82
2022-12-11T05:03:56.356Z,11.55
2022-12-11T05:06:26.222Z,11.80
2022-12-11T05:08:54.934Z,10.38
2022-12-11T05:11:23.251Z,8.30
2022-12-11T05:13:51.568Z,13.10
2022-12-11T05:16:19.901Z,13.98
2022-12-11T05:18:48.642Z,13.98
2022-12-11T05:21:17.330Z,11.98
2022-12-11T05:23:47.156Z,14.82
2022-12-11T05:26:17.186Z,13.20
2022-12-11T05:28:45.889Z,14.80
2022-12-11T05:31:15.753Z,12.70
2022-12-11T05:33:48.756Z,9.52
2022-12-11T05:36:24.422Z,10.45
2022-12-11T05:38:58.152Z,13.05
2022-12-11T05:41:28.250Z,9.05
2022-12-11T05:43:57.477Z,9.93
2022-12-11T05:46:27.503Z,13.57
2022-12-11T05:48:57.521Z,8.00
2022-12-11T05:51:26.336Z,9.25
2022-12-11T05:53:57.277Z,11.65
2022-12-11T05:56:27.416Z,9.32
2022-12-11T05:58:56.255Z,9.90
2022-12-11T06:01:29.014Z,11.50
2022-12-11T06:03:57.800Z,11.25
2022-12-11T06:06:27.128Z,8.48
2022-12-11T06:08:58.269Z,12.55
2022-12-11T06:11:27.226Z,13.20
2022-12-11T06:13:55.902Z,13.57
2022-12-11T06:16:24.735Z,12.00
2022-12-11T06:18:57.868Z,9.18
2022-12-11T06:21:28.442Z,12.25
2022-12-11T06:24:01.215Z,10.15
2022-12-11T06:26:30.173Z,7.25
2022-12-11T06:28:58.498Z,12.43
2022-12-11T06:31:26.823Z,7.85
2022-12-11T06:33:55.191Z,11.85
2022-12-11T06:36:25.047Z,11.65
2022-12-11T06:38:54.190Z,8.63
2022-12-11T06:41:24.119Z,9.35
2022-12-11T06:43:52.608Z,7.72
2022-12-11T06:46:21.673Z,12.35
2022-12-11T06:48:50.623Z,12.88
2022-12-11T06:51:20.996Z,12.35
2022-12-11T06:53:53.170Z,10.45
2022-12-11T06:56:23.616Z,9.52
2022-12-11T06:58:52.180Z,11.50
2022-12-11T07:01:22.091Z,12.82
2022-12-11T07:03:51.004Z,12.38
2022-12-11T07:06:20.261Z,11.00
2022-12-11T07:08:48.676Z,11.68
2022-12-11T07:11:18.964Z,9.27
2022-12-11T07:13:48.788Z,9.32
2022-12-11T07:16:18.438Z,13.20
2022-12-11T07:18:50.634Z,11.13
2022-12-11T07:21:20.217Z,11.93
2022-12-11T07:23:49.184Z,8.63
2022-12-11T07:26:19.615Z,10.63
2022-12-11T07:28:49.531Z,12.63
2022-12-11T07:31:22.049Z,12.60
2022-12-11T07:33:54.734Z,14.43
2022-12-11T07:36:24.486Z,12.77
2022-12-11T07:38:54.279Z,14.48
2022-12-11T07:41:25.420Z,12.07
2022-12-11T07:43:59.965Z,13.20
2022-12-11T07:46:30.991Z,11.70
2022-12-11T07:49:03.501Z,9.23
2022-12-11T07:51:33.598Z,8.35
2022-12-11T07:54:06.504Z,10.35
2022-12-11T07:56:35.748Z,13.20
2022-12-11T07:59:06.549Z,12.15
2022-12-11T08:01:36.897Z,6.47
2022-12-11T08:04:06.227Z,6.47
2022-12-11T08:06:36.038Z,11.05
2022-12-11T08:09:07.123Z,11.82
2022-12-11T08:11:36.244Z,11.48
2022-12-11T08:14:08.471Z,9.48
2022-12-11T08:16:43.204Z,11.55
2022-12-11T08:21:40.577Z,11.45
2022-12-11T08:24:10.153Z,10.48
2022-12-11T08:26:38.627Z,11.32
2022-12-11T08:29:08.367Z,7.70
2022-12-11T08:31:37.548Z,8.68
2022-12-11T08:34:05.987Z,10.35
2022-12-11T08:36:35.425Z,8.60
2022-12-11T08:39:04.493Z,10.05
2022-12-11T08:41:33.257Z,8.15
2022-12-11T08:47:03.378Z,10.77
2022-12-11T08:49:34.564Z,7.20
2022-12-11T08:52:04.781Z,12.73
2022-12-11T08:54:33.408Z,12.30
2022-12-11T08:57:01.735Z,10.13
2022-12-11T08:59:30.101Z,9.05
2022-12-11T09:02:01.312Z,9.45
2022-12-11T09:04:29.663Z,11.88
2022-12-11T09:06:57.975Z,12.43
2022-12-11T09:09:26.337Z,11.90
2022-12-11T09:11:54.746Z,9.70
2022-12-11T09:14:23.286Z,12.60
2022-12-11T09:16:51.660Z,11.35
2022-12-11T09:19:21.392Z,11.48
2022-12-11T09:21:49.878Z,8.07
2022-12-11T09:24:25.128Z,8.30
2022-12-11T09:26:54.739Z,7.88
2022-12-11T09:29:26.296Z,10.07
2022-12-11T09:31:54.653Z,13.32
2022-12-11T09:34:29.240Z,12.23
2022-12-11T09:36:58.795Z,12.05
2022-12-11T09:39:27.138Z,11.05
2022-12-11T09:42:01.700Z,11.25
2022-12-11T09:47:02.825Z,10.93
2022-12-11T09:49:58.844Z,11.98
2022-12-11T09:52:37.301Z,12.00
2022-12-11T09:55:16.681Z,13.60
2022-12-11T09:57:53.165Z,10.57
2022-12-11T10:04:01.276Z,14.02
2022-12-11T10:13:27.974Z,12.23
2022-12-11T10:23:09.263Z,11.43
2022-12-11T10:31:35.803Z,11.75
2022-12-11T10:34:07.821Z,12.77
2022-12-11T10:36:40.615Z,8.20
2022-12-11T10:39:17.542Z,13.15
2022-12-11T10:41:51.997Z,12.32
2022-12-11T10:44:23.514Z,12.40
2022-12-11T10:47:03.975Z,12.10
2022-12-11T10:49:35.668Z,12.32
2022-12-11T10:52:11.990Z,9.40
2022-12-11T10:54:57.453Z,10.27
2022-12-11T10:57:38.706Z,8.95
2022-12-11T11:00:36.770Z,8.40
2022-12-11T11:03:24.996Z,9.30
2022-12-11T11:06:07.899Z,14.20
2022-12-11T11:08:45.061Z,9.35
2022-12-11T11:11:39.290Z,9.75
2022-12-11T11:14:27.953Z,10.75
2022-12-11T11:16:57.863Z,8.13
2022-12-11T11:19:31.663Z,9.63
2022-12-11T11:22:03.713Z,14.00
2022-12-11T11:24:37.109Z,13.50
2022-12-11T11:27:17.741Z,12.10
2022-12-11T11:29:53.243Z,10.32
2022-12-11T11:32:24.400Z,7.57
2022-12-11T11:34:54.014Z,8.27
2022-12-11T11:37:38.027Z,11.05
2022-12-11T11:40:21.385Z,6.78
2022-12-11T11:43:08.982Z,11.05
2022-12-11T11:45:43.784Z,11.75
2022-12-11T11:51:48.164Z,8.48
2022-12-11T11:54:34.962Z,10.13
2022-12-11T11:57:18.619Z,7.63
2022-12-11T11:59:52.118Z,8.88
2022-12-11T12:02:23.997Z,15.15
2022-12-11T12:05:00.473Z,9.82
2022-12-11T12:16:54.599Z,9.00
2022-12-11T12:23:38.786Z,12.73
2022-12-11T12:27:50.610Z,9.07
2022-12-11T12:30:22.973Z,11.68
2022-12-11T12:33:05.409Z,12.65
2022-12-11T12:35:37.380Z,10.93
2022-12-11T12:38:12.966Z,9.88
2022-12-11T12:40:51.313Z,12.18
2022-12-11T12:43:37.409Z,7.07
2022-12-11T12:46:13.073Z,9.40
2022-12-11T12:48:44.028Z,8.65
2022-12-11T12:51:15.305Z,9.80
2022-12-11T12:53:49.287Z,9.68
2022-12-11T12:56:17.969Z,7.35
2022-12-11T12:58:47.429Z,6.20
2022-12-11T13:01:19.431Z,8.02
2022-12-11T13:03:55.844Z,5.53
2022-12-11T13:06:35.685Z,8.52
2022-12-11T13:09:20.911Z,6.90
2022-12-11T13:14:29.790Z,5.95
2022-12-11T13:17:26.492Z,6.75
2022-12-11T13:20:18.006Z,7.22
2022-12-11T13:22:52.095Z,8.02
2022-12-11T13:25:28.504Z,6.28
2022-12-11T13:28:22.165Z,5.38
2022-12-11T13:34:20.192Z,6.45
2022-12-11T13:36:55.540Z,5.18
2022-12-11T13:42:21.959Z,6.20
2022-12-11T13:44:58.313Z,5.00
2022-12-11T13:49:57.346Z,6.28
2022-12-11T13:52:28.720Z,6.68
2022-12-11T13:54:59.367Z,5.05
2022-12-11T13:57:29.576Z,6.20
2022-12-11T13:59:59.612Z,6.13
2022-12-11T14:02:30.485Z,8.80
2022-12-11T14:05:00.877Z,7.22
2022-12-11T14:07:31.348Z,9.45
2022-12-11T14:10:03.716Z,8.25
2022-12-11T14:12:34.312Z,6.55
2022-12-11T14:15:08.303Z,6.15
2022-12-11T14:17:37.976Z,5.22
2022-12-11T14:20:08.686Z,4.43
2022-12-11T14:22:38.973Z,7.20
2022-12-11T14:25:23.046Z,5.95
2022-12-11T14:27:54.623Z,6.40
2022-12-11T14:30:24.478Z,3.88
2022-12-11T14:32:53.611Z,4.95
2022-12-11T14:35:27.247Z,4.35
2022-12-11T14:37:56.355Z,8.20
2022-12-11T14:40:37.150Z,5.65
2022-12-11T14:43:10.165Z,5.57
2022-12-11T14:45:40.299Z,5.18
2022-12-11T14:48:13.638Z,5.05
2022-12-11T14:50:47.527Z,7.50
2022-12-11T14:53:18.464Z,5.83
2022-12-11T14:55:48.652Z,6.93
2022-12-11T14:58:21.273Z,6.28
2022-12-11T15:00:58.666Z,6.95
2022-12-11T15:03:33.860Z,5.00
2022-12-11T15:06:03.446Z,6.20
2022-12-11T15:08:33.260Z,5.55
2022-12-11T15:11:08.450Z,7.32
2022-12-11T15:13:40.555Z,5.80
2022-12-11T15:16:10.333Z,6.90
2022-12-11T15:18:40.521Z,6.05
2022-12-11T15:21:11.397Z,5.57
2022-12-11T15:23:51.032Z,7.03
2022-12-11T15:26:23.035Z,7.15
2022-12-11T15:29:03.314Z,6.85
2022-12-11T15:31:36.317Z,7.47
2022-12-11T15:34:05.117Z,4.90
2022-12-11T15:36:35.623Z,4.88
2022-12-11T15:39:13.632Z,4.72
2022-12-11T15:44:47.304Z,6.00
2022-12-11T15:47:22.056Z,6.93
2022-12-11T15:49:50.645Z,5.97
2022-12-11T15:52:24.252Z,7.13
2022-12-11T15:54:55.105Z,7.05
2022-12-11T15:57:27.110Z,7.55
2022-12-11T15:59:57.357Z,6.95
2022-12-11T16:02:40.411Z,5.82
2022-12-11T16:05:10.668Z,4.75
2022-12-11T16:07:41.691Z,7.22
2022-12-11T16:10:16.264Z,5.32
2022-12-11T16:12:45.484Z,5.50
2022-12-11T16:15:23.535Z,7.32
2022-12-11T16:18:01.813Z,7.13
2022-12-11T16:20:31.086Z,5.00
2022-12-11T16:23:01.121Z,5.80
2022-12-11T16:25:40.527Z,6.43
2022-12-11T16:28:10.386Z,5.47
2022-12-11T16:30:43.689Z,7.90
2022-12-11T16:33:13.642Z,6.05
2022-12-11T16:35:43.499Z,4.95
2022-12-11T16:38:15.535Z,4.00
2022-12-11T16:40:44.219Z,7.22
2022-12-11T16:43:12.834Z,6.78
2022-12-11T16:45:44.737Z,6.03
2022-12-11T16:48:15.601Z,4.85
2022-12-11T16:51:02.491Z,6.13
2022-12-11T16:53:31.218Z,4.35
2022-12-11T16:55:59.752Z,5.10
2022-12-11T16:58:31.366Z,6.40
2022-12-11T17:01:04.962Z,6.10
2022-12-11T17:03:36.406Z,6.10
2022-12-11T17:06:18.178Z,5.82
2022-12-11T17:08:53.814Z,5.45
2022-12-11T17:11:27.758Z,4.78
2022-12-11T17:14:15.377Z,4.82
2022-12-11T17:16:48.336Z,5.10
2022-12-11T17:19:28.563Z,4.72
2022-12-11T17:22:00.225Z,5.60
2022-12-11T17:24:34.547Z,4.95
2022-12-11T17:27:03.001Z,5.22
2022-12-11T17:29:34.515Z,3.22
2022-12-11T17:32:04.472Z,3.67
2022-12-11T17:34:38.372Z,5.22
2022-12-11T17:37:10.984Z,4.93
2022-12-11T17:39:40.006Z,4.93
2022-12-11T17:42:10.603Z,5.00
2022-12-11T17:50:12.874Z,3.22
2022-12-11T17:52:44.285Z,5.20
2022-12-11T17:55:13.495Z,4.80
2022-12-11T17:57:44.720Z,3.92
2022-12-11T18:00:17.944Z,3.92
2022-12-11T18:02:53.469Z,5.18
2022-12-11T18:05:26.287Z,5.68
2022-12-11T18:08:00.398Z,4.25
2022-12-11T18:10:35.185Z,3.28
2022-12-11T18:15:38.104Z,4.15
2022-12-11T18:18:08.991Z,4.00
2022-12-11T18:20:38.170Z,3.35
2022-12-11T18:23:11.600Z,4.57
2022-12-11T18:25:40.244Z,4.00
2022-12-11T18:28:08.823Z,2.90
2022-12-11T18:30:39.772Z,3.45
2022-12-11T18:33:09.720Z,3.85
2022-12-11T18:35:41.602Z,3.88
2022-12-11T18:38:16.863Z,3.25
2022-12-11T18:40:47.269Z,2.10
2022-12-11T18:43:30.142Z,3.70
2022-12-11T18:46:05.644Z,3.00
2022-12-11T18:48:36.757Z,3.35
2022-12-11T18:51:08.442Z,3.15
2022-12-11T18:53:39.297Z,2.85
2022-12-11T18:56:12.429Z,3.00
2022-12-11T18:58:41.273Z,2.13
2022-12-11T19:01:16.374Z,3.15
2022-12-11T19:03:54.468Z,2.65
2022-12-11T19:06:28.678Z,3.15
2022-12-11T19:09:01.034Z,3.00
2022-12-11T19:11:42.211Z,3.00
2022-12-11T19:14:12.732Z,3.17
2022-12-11T19:16:47.041Z,2.10
2022-12-11T19:19:20.883Z,2.75
2022-12-11T19:21:56.971Z,2.20
2022-12-11T19:24:29.610Z,2.67
2022-12-11T19:30:09.049Z,2.70
2022-12-11T19:38:30.153Z,1.65
2022-12-11T19:41:03.445Z,2.40
2022-12-11T19:43:33.008Z,2.47
2022-12-11T19:46:01.961Z,1.95
2022-12-11T19:48:30.525Z,1.77
2022-12-11T19:51:08.266Z,1.92
2022-12-11T19:53:37.956Z,2.13
2022-12-11T19:56:09.366Z,3.13
2022-12-11T19:58:39.314Z,2.88
2022-12-11T20:01:08.577Z,1.77
2022-12-11T20:03:37.526Z,3.10
2022-12-11T20:06:10.219Z,3.53
2022-12-11T20:08:46.314Z,3.20
2022-12-11T20:11:18.721Z,3.13
2022-12-11T20:13:47.620Z,3.47
2022-12-11T20:16:16.870Z,3.60
2022-12-11T20:18:46.365Z,4.03
2022-12-11T20:21:21.879Z,3.08
2022-12-11T20:23:50.395Z,3.38
2022-12-11T20:26:21.776Z,2.17
2022-12-11T20:28:52.130Z,2.55
2022-12-11T20:31:25.319Z,3.25
2022-12-11T20:33:55.167Z,2.97
2022-12-11T20:36:25.656Z,3.40
2022-12-11T20:38:54.217Z,2.72
2022-12-11T20:41:24.627Z,3.80
2022-12-11T20:43:54.431Z,3.70
2022-12-11T20:46:25.237Z,4.55
2022-12-11T20:48:54.321Z,4.30
2022-12-11T20:51:26.593Z,2.90
2022-12-11T20:53:59.259Z,4.50
2022-12-11T20:56:30.064Z,3.20
2022-12-11T20:59:03.452Z,3.95
2022-12-11T21:01:39.033Z,4.05
2022-12-11T21:04:11.892Z,5.45
2022-12-11T21:06:44.930Z,4.13
2022-12-11T21:09:31.052Z,4.15
2022-12-11T21:12:05.601Z,3.53
2022-12-11T21:14:36.140Z,5.20
2022-12-11T21:17:09.634Z,5.13
2022-12-11T21:19:44.096Z,5.30
2022-12-11T21:22:19.808Z,5.35
2022-12-11T21:24:50.832Z,6.88
2022-12-11T21:27:26.029Z,6.05
2022-12-11T21:30:09.081Z,6.25
2022-12-11T21:32:44.301Z,6.65
2022-12-11T21:35:16.606Z,5.47
2022-12-11T21:37:50.499Z,7.57
2022-12-11T21:40:19.304Z,5.97
2022-12-11T21:42:47.754Z,6.95
2022-12-11T21:45:59.923Z,7.32
2022-12-11T21:48:08.811Z,9.95
2022-12-11T21:50:48.435Z,10.13
2022-12-11T21:53:23.451Z,9.88
2022-12-11T21:55:55.762Z,10.57
2022-12-11T21:58:35.416Z,11.55
2022-12-11T22:01:19.567Z,11.70
2022-12-11T22:03:50.998Z,11.68
2022-12-11T22:06:20.493Z,11.52
2022-12-11T22:08:51.471Z,11.13
2022-12-11T22:11:25.023Z,10.20
2022-12-11T22:14:01.527Z,12.65
2022-12-11T22:16:37.743Z,12.73
2022-12-11T22:19:11.212Z,11.70
2022-12-11T22:21:50.084Z,13.35
2022-12-11T22:24:28.985Z,11.00
2022-12-11T22:26:58.696Z,14.50
2022-12-11T22:29:33.224Z,10.45
2022-12-11T22:32:02.042Z,12.85
2022-12-11T22:34:34.088Z,9.65
2022-12-11T22:37:06.043Z,14.68
2022-12-11T22:42:42.371Z,16.05
2022-12-11T22:45:28.919Z,15.98
2022-12-11T22:47:58.167Z,15.27
2022-12-11T22:50:29.491Z,16.05
2022-12-11T22:52:58.077Z,16.88
2022-12-11T22:55:28.492Z,16.75
2022-12-11T22:57:57.312Z,14.38
2022-12-11T23:00:26.200Z,13.73
2022-12-11T23:02:57.334Z,15.15
2022-12-11T23:05:26.209Z,16.50
2022-12-11T23:07:56.199Z,17.52
2022-12-11T23:10:30.892Z,16.45
2022-12-11T23:13:04.416Z,13.82
2022-12-11T23:15:33.514Z,15.75
2022-12-11T23:18:02.578Z,16.50
2022-12-11T23:20:31.388Z,15.60
2022-12-11T23:23:02.935Z,15.35
2022-12-11T23:25:45.679Z,13.10
2022-12-11T23:28:23.727Z,15.57
2022-12-11T23:30:55.405Z,15.93
2022-12-11T23:33:32.060Z,17.25
2022-12-11T23:36:01.268Z,14.40
2022-12-11T23:38:30.445Z,13.88
2022-12-11T23:41:01.810Z,14.27
2022-12-11T23:43:34.848Z,13.07
2022-12-11T23:46:21.144Z,13.57
2022-12-11T23:48:54.789Z,14.65
2022-12-11T23:51:26.959Z,13.07
2022-12-11T23:54:00.003Z,14.95
2022-12-11T23:56:34.209Z,14.70
2022-12-11T23:59:04.379Z,14.57
